Terminal Aerodrome Forecast
Issued by NWS Amarillo, TX

Home | Current Version | Previous Version | Text Only | Print | Product List | Glossary On
Versions: 1 2 3 4 5 6 7 8 9 10 11 12 13 14 15 16 17 18 19 20 21 22 23 24 25 26 27 28 29
000
FTUS44 KAMA 040500
TAFAMA
TAF
KAMA 040520Z 0406/0506 06013KT P6SM OVC005
     FM040800 06015G22KT 4SM -FZRASN BR OVC004
     FM041400 04020G30KT 2SM -SN BR OVC003
     FM042000 02020G30KT 1SM -SN BR OVC003
     FM050300 01013KT 5SM BR OVC010=

USA.gov is the U.S. government's official web portal to all federal, state and local government web resources and services.